createdAt,value
2022-08-14T00:01:10.142Z,23.34
2022-08-14T00:03:40.372Z,23.30
2022-08-14T00:06:13.914Z,23.29
2022-08-14T00:08:52.961Z,23.25
2022-08-14T00:11:19.828Z,23.21
2022-08-14T00:13:52.701Z,23.17
2022-08-14T00:16:41.041Z,23.15
2022-08-14T00:19:19.544Z,23.12
2022-08-14T00:21:51.971Z,23.07
2022-08-14T00:24:28.180Z,23.04
2022-08-14T00:27:01.828Z,23.00
2022-08-14T00:29:33.225Z,22.97
2022-08-14T00:32:53.122Z,22.94
2022-08-14T00:34:53.958Z,22.91
2022-08-14T00:37:20.890Z,22.88
2022-08-14T00:39:47.599Z,22.85
2022-08-14T00:42:21.159Z,22.81
2022-08-14T00:45:09.849Z,22.80
2022-08-14T00:47:42.997Z,22.76
2022-08-14T00:50:17.988Z,22.72
2022-08-14T00:52:52.240Z,22.68
2022-08-14T00:55:20.524Z,22.66
2022-08-14T00:58:07.906Z,22.62
2022-08-14T01:00:37.463Z,22.60
2022-08-14T01:03:12.221Z,22.56
2022-08-14T01:05:41.739Z,22.53
2022-08-14T01:08:52.169Z,22.50
2022-08-14T01:11:19.240Z,22.48
2022-08-14T01:13:50.783Z,22.44
2022-08-14T01:16:27.939Z,22.42
2022-08-14T01:19:16.579Z,22.38
2022-08-14T01:21:46.765Z,22.34
2022-08-14T01:24:24.834Z,22.30
2022-08-14T01:27:00.199Z,22.28
2022-08-14T01:29:58.885Z,22.25
2022-08-14T01:32:23.098Z,22.21
2022-08-14T01:35:18.268Z,22.17
2022-08-14T01:37:54.416Z,22.14
2022-08-14T01:40:25.803Z,22.12
2022-08-14T01:43:00.239Z,22.10
2022-08-14T01:45:40.033Z,22.08
2022-08-14T01:48:13.870Z,22.05
2022-08-14T01:50:42.645Z,22.03
2022-08-14T01:53:11.024Z,21.99
2022-08-14T01:55:40.240Z,21.97
2022-08-14T01:58:19.869Z,21.94
2022-08-14T02:00:57.026Z,21.91
2022-08-14T02:03:30.096Z,21.88
2022-08-14T02:05:59.707Z,21.85
2022-08-14T02:08:35.152Z,21.83
2022-08-14T02:11:25.578Z,21.81
2022-08-14T02:13:52.498Z,21.78
2022-08-14T02:16:29.538Z,21.73
2022-08-14T02:18:58.901Z,21.70
2022-08-14T02:21:27.195Z,21.70
2022-08-14T02:23:55.504Z,21.66
2022-08-14T02:26:29.675Z,21.64
2022-08-14T02:29:11.978Z,21.63
2022-08-14T02:31:43.379Z,21.60
2022-08-14T02:34:22.474Z,21.58
2022-08-14T02:37:04.486Z,21.55
2022-08-14T02:39:37.229Z,21.53
2022-08-14T02:42:05.555Z,21.50
2022-08-14T02:44:39.813Z,21.48
2022-08-14T02:47:15.186Z,21.47
2022-08-14T02:49:50.672Z,21.55
2022-08-14T02:52:56.025Z,21.47
2022-08-14T02:55:09.520Z,21.40
2022-08-14T02:57:40.278Z,21.37
2022-08-14T03:00:18.535Z,21.33
2022-08-14T03:02:56.423Z,21.32
2022-08-14T03:05:30.511Z,21.30
2022-08-14T03:08:16.022Z,21.26
2022-08-14T03:10:48.581Z,21.22
2022-08-14T03:13:20.787Z,21.21
2022-08-14T03:15:55.272Z,21.18
2022-08-14T03:18:31.258Z,21.17
2022-08-14T03:21:01.590Z,21.14
2022-08-14T03:23:34.129Z,21.11
2022-08-14T03:26:05.369Z,21.09
2022-08-14T03:28:32.890Z,21.08
2022-08-14T03:31:01.032Z,21.06
2022-08-14T03:33:37.648Z,21.03
2022-08-14T03:37:38.596Z,21.02
2022-08-14T03:39:15.481Z,20.99
2022-08-14T03:41:55.853Z,20.96
2022-08-14T03:45:18.984Z,20.92
2022-08-14T03:47:12.129Z,20.89
2022-08-14T03:49:42.285Z,20.86
2022-08-14T03:52:28.071Z,20.83
2022-08-14T03:54:59.205Z,20.80
2022-08-14T03:57:26.070Z,20.77
2022-08-14T03:59:52.806Z,20.77
2022-08-14T04:02:33.272Z,20.74
2022-08-14T04:05:11.968Z,20.71
2022-08-14T04:07:49.467Z,20.69
2022-08-14T04:10:31.864Z,20.66
2022-08-14T04:13:05.996Z,20.63
2022-08-14T04:15:56.417Z,20.61
2022-08-14T04:18:20.385Z,20.59
2022-08-14T04:20:55.039Z,20.56
2022-08-14T04:23:29.435Z,20.52
2022-08-14T04:26:14.204Z,20.49
2022-08-14T04:29:06.742Z,20.47
2022-08-14T04:32:58.174Z,20.45
2022-08-14T04:34:27.440Z,20.41
2022-08-14T04:37:13.396Z,20.38
2022-08-14T04:40:20.654Z,20.36
2022-08-14T04:43:05.672Z,20.34
2022-08-14T04:45:38.735Z,20.30
2022-08-14T04:48:13.118Z,20.28
2022-08-14T04:50:53.763Z,20.25
2022-08-14T04:53:26.495Z,20.24
2022-08-14T04:56:05.911Z,20.24
2022-08-14T04:58:38.986Z,20.23
2022-08-14T05:01:12.938Z,20.21
2022-08-14T05:03:46.468Z,20.31
2022-08-14T05:06:37.394Z,20.25
2022-08-14T05:09:00.694Z,20.21
2022-08-14T05:11:28.012Z,20.18
2022-08-14T05:14:42.805Z,20.15
2022-08-14T05:16:46.543Z,20.15
2022-08-14T05:19:25.002Z,20.13
2022-08-14T05:22:16.970Z,20.23
2022-08-14T05:24:50.452Z,20.17
2022-08-14T05:27:23.177Z,20.13
2022-08-14T05:29:55.396Z,20.12
2022-08-14T05:32:23.653Z,20.12
2022-08-14T05:34:57.450Z,20.12
2022-08-14T05:37:24.530Z,20.13
2022-08-14T05:39:53.416Z,20.12
2022-08-14T05:42:29.249Z,20.13
2022-08-14T05:44:59.470Z,20.15
2022-08-14T05:47:28.579Z,20.14
2022-08-14T05:50:01.871Z,20.18
2022-08-14T05:52:39.390Z,20.19
2022-08-14T05:55:09.312Z,20.20
2022-08-14T05:57:48.065Z,20.21
2022-08-14T06:00:25.003Z,20.23
2022-08-14T06:02:56.554Z,20.24
2022-08-14T06:05:24.111Z,20.24
2022-08-14T06:07:57.343Z,20.25
2022-08-14T06:10:24.447Z,20.27
2022-08-14T06:12:56.282Z,20.29
2022-08-14T06:15:28.985Z,20.31
2022-08-14T06:17:59.503Z,20.34
2022-08-14T06:20:28.274Z,20.37
2022-08-14T06:22:56.311Z,20.40
2022-08-14T06:25:25.007Z,20.41
2022-08-14T06:27:52.005Z,20.45
2022-08-14T06:30:41.829Z,20.47
2022-08-14T06:33:12.978Z,20.54
2022-08-14T06:35:42.475Z,20.66
2022-08-14T06:38:17.285Z,20.61
2022-08-14T06:40:45.062Z,20.61
2022-08-14T06:43:15.532Z,20.62
2022-08-14T06:45:43.738Z,20.65
2022-08-14T06:48:18.477Z,20.69
2022-08-14T06:50:48.623Z,20.73
2022-08-14T06:53:20.015Z,20.76
2022-08-14T06:55:58.192Z,20.79
2022-08-14T06:58:29.256Z,20.92
2022-08-14T07:01:15.896Z,20.91
2022-08-14T07:04:01.266Z,20.91
2022-08-14T07:06:46.849Z,20.93
2022-08-14T07:09:22.495Z,20.96
2022-08-14T07:11:51.814Z,21.01
2022-08-14T07:14:18.599Z,21.05
2022-08-14T07:16:45.370Z,21.08
2022-08-14T07:19:12.097Z,21.13
2022-08-14T07:21:39.700Z,21.17
2022-08-14T07:24:09.604Z,21.22
2022-08-14T07:26:46.175Z,21.28
2022-08-14T07:29:12.894Z,21.32
2022-08-14T07:31:39.642Z,21.37
2022-08-14T07:34:06.491Z,21.42
2022-08-14T07:36:38.283Z,21.47
2022-08-14T07:39:27.516Z,21.53
2022-08-14T07:41:54.544Z,21.59
2022-08-14T07:44:29.407Z,21.62
2022-08-14T07:47:02.138Z,21.67
2022-08-14T07:49:32.392Z,21.72
2022-08-14T07:52:00.067Z,21.77
2022-08-14T07:54:30.136Z,21.82
2022-08-14T07:57:06.593Z,21.87
2022-08-14T07:59:42.418Z,21.93
2022-08-14T08:02:18.493Z,21.98
2022-08-14T08:04:55.343Z,22.03
2022-08-14T08:07:29.586Z,22.10
2022-08-14T08:09:57.787Z,22.13
2022-08-14T08:12:29.762Z,22.17
2022-08-14T08:15:02.540Z,22.23
2022-08-14T08:17:34.345Z,22.29
2022-08-14T08:20:01.966Z,22.35
2022-08-14T08:22:32.483Z,22.39
2022-08-14T08:25:00.751Z,22.43
2022-08-14T08:27:27.568Z,22.49
2022-08-14T08:30:04.609Z,22.52
2022-08-14T08:32:41.469Z,22.57
2022-08-14T08:35:23.450Z,22.62
2022-08-14T08:38:01.238Z,22.68
2022-08-14T08:40:51.174Z,22.72
2022-08-14T08:43:23.566Z,22.77
2022-08-14T08:46:03.724Z,22.80
2022-08-14T08:48:50.127Z,22.85
2022-08-14T08:51:33.433Z,22.89
2022-08-14T08:54:05.716Z,22.94
2022-08-14T08:56:44.326Z,22.99
2022-08-14T08:59:27.043Z,23.07
2022-08-14T09:02:10.368Z,23.14
2022-08-14T09:04:44.989Z,23.20
2022-08-14T09:07:14.434Z,23.26
2022-08-14T09:09:54.577Z,23.32
2022-08-14T09:12:26.933Z,23.38
2022-08-14T09:14:56.871Z,23.45
2022-08-14T09:17:25.785Z,23.48
2022-08-14T09:19:53.839Z,23.54
2022-08-14T09:22:34.835Z,23.59
2022-08-14T09:25:07.719Z,23.63
2022-08-14T09:27:36.602Z,23.68
2022-08-14T09:30:12.636Z,23.73
2022-08-14T09:33:09.111Z,23.76
2022-08-14T09:36:13.572Z,23.82
2022-08-14T09:38:59.022Z,23.86
2022-08-14T09:42:17.324Z,23.89
2022-08-14T09:44:32.543Z,23.92
2022-08-14T09:46:59.942Z,23.98
2022-08-14T09:49:39.966Z,24.02
2022-08-14T09:52:32.755Z,24.08
2022-08-14T09:54:59.610Z,24.15
2022-08-14T09:57:30.385Z,24.18
2022-08-14T09:59:57.458Z,24.24
2022-08-14T10:02:27.862Z,24.25
2022-08-14T10:05:13.260Z,24.31
2022-08-14T10:07:53.530Z,24.36
2022-08-14T10:10:34.286Z,24.41
2022-08-14T10:13:02.918Z,24.47
2022-08-14T10:15:31.886Z,24.49
2022-08-14T10:18:17.722Z,24.54
2022-08-14T10:20:58.731Z,24.59
2022-08-14T10:23:33.934Z,24.63
2022-08-14T10:26:07.596Z,24.65
2022-08-14T10:29:18.424Z,24.71
2022-08-14T10:31:44.714Z,24.74
2022-08-14T10:34:13.983Z,24.79
2022-08-14T10:36:47.668Z,24.81
2022-08-14T10:39:23.515Z,24.87
2022-08-14T10:42:16.519Z,24.92
2022-08-14T10:44:49.203Z,24.97
2022-08-14T10:47:39.723Z,25.01
2022-08-14T10:50:07.759Z,25.05
2022-08-14T10:52:39.161Z,25.08
2022-08-14T10:55:13.879Z,25.14
2022-08-14T10:57:53.958Z,25.18
2022-08-14T11:00:29.747Z,25.34
2022-08-14T11:03:11.005Z,25.32
2022-08-14T11:05:46.343Z,25.33
2022-08-14T11:08:16.821Z,25.36
2022-08-14T11:10:55.829Z,25.38
2022-08-14T11:13:27.374Z,25.44
2022-08-14T11:16:03.649Z,25.51
2022-08-14T11:18:35.997Z,25.59
2022-08-14T11:21:08.228Z,25.67
2022-08-14T11:23:41.185Z,25.71
2022-08-14T11:26:11.223Z,25.75
2022-08-14T11:28:46.404Z,25.80
2022-08-14T11:31:18.573Z,25.85
2022-08-14T11:33:49.682Z,25.90
2022-08-14T11:36:18.213Z,25.94
2022-08-14T11:38:46.606Z,25.98
2022-08-14T11:41:18.883Z,26.01
2022-08-14T11:43:58.158Z,26.03
2022-08-14T11:46:30.348Z,26.09
2022-08-14T11:49:05.181Z,26.13
2022-08-14T11:51:50.929Z,26.13
2022-08-14T11:54:20.152Z,26.16
2022-08-14T11:56:56.953Z,26.18
2022-08-14T11:59:26.598Z,26.20
2022-08-14T12:02:45.888Z,26.22
2022-08-14T12:04:58.920Z,26.28
2022-08-14T12:07:25.958Z,26.29
2022-08-14T12:09:56.364Z,26.31
2022-08-14T12:12:35.630Z,26.34
2022-08-14T12:15:05.470Z,26.38
2022-08-14T12:17:47.524Z,26.42
2022-08-14T12:20:32.416Z,26.47
2022-08-14T12:23:01.332Z,26.50
2022-08-14T12:25:28.583Z,26.53
2022-08-14T12:27:59.141Z,26.55
2022-08-14T12:30:39.412Z,26.57
2022-08-14T12:33:33.500Z,26.60
2022-08-14T12:36:12.286Z,26.64
2022-08-14T12:38:46.738Z,26.67
2022-08-14T12:41:20.829Z,26.67
2022-08-14T12:43:59.843Z,26.70
2022-08-14T12:46:29.144Z,26.74
2022-08-14T12:48:58.659Z,26.77
2022-08-14T12:51:27.699Z,26.78
2022-08-14T12:53:59.541Z,26.80
2022-08-14T12:56:33.217Z,26.82
2022-08-14T12:59:01.775Z,26.84
2022-08-14T13:01:31.385Z,26.85
2022-08-14T13:04:24.377Z,26.87
2022-08-14T13:06:52.871Z,26.88
2022-08-14T13:09:19.913Z,26.88
2022-08-14T13:11:58.976Z,26.88
2022-08-14T13:14:39.034Z,26.92
2022-08-14T13:17:07.202Z,26.92
2022-08-14T13:19:34.462Z,26.93
2022-08-14T13:22:09.515Z,26.94
2022-08-14T13:24:38.813Z,26.95
2022-08-14T13:27:06.765Z,26.96
2022-08-14T13:29:40.839Z,26.97
2022-08-14T13:32:13.020Z,27.00
2022-08-14T13:34:41.094Z,27.00
2022-08-14T13:37:07.885Z,27.00
2022-08-14T13:39:35.931Z,27.01
2022-08-14T13:42:13.555Z,27.01
2022-08-14T13:44:42.500Z,27.02
2022-08-14T13:47:11.272Z,27.02
2022-08-14T13:49:40.272Z,27.03
2022-08-14T13:52:51.805Z,27.04
2022-08-14T13:55:13.367Z,27.05
2022-08-14T13:57:55.919Z,27.06
2022-08-14T14:00:35.572Z,27.06
2022-08-14T14:03:05.285Z,27.07
2022-08-14T14:05:52.648Z,27.07
2022-08-14T14:08:43.348Z,27.09
2022-08-14T14:11:09.711Z,27.08
2022-08-14T14:13:37.386Z,27.08
2022-08-14T14:16:09.562Z,27.08
2022-08-14T14:18:42.430Z,27.09
2022-08-14T14:21:09.546Z,27.09
2022-08-14T14:23:37.953Z,27.08
2022-08-14T14:26:06.099Z,27.09
2022-08-14T14:28:33.613Z,27.10
2022-08-14T14:31:07.094Z,27.11
2022-08-14T14:33:47.306Z,27.11
2022-08-14T14:36:22.252Z,27.12
2022-08-14T14:39:01.184Z,27.13
2022-08-14T14:41:38.224Z,27.13
2022-08-14T14:44:09.423Z,27.13
2022-08-14T14:46:42.326Z,27.13
2022-08-14T14:49:14.982Z,27.14
2022-08-14T14:51:44.512Z,27.15
2022-08-14T14:54:14.604Z,27.15
2022-08-14T14:56:48.283Z,27.17
2022-08-14T14:59:18.628Z,27.17
2022-08-14T15:01:49.742Z,27.16
2022-08-14T15:04:20.817Z,27.17
2022-08-14T15:06:48.962Z,27.18
2022-08-14T15:09:17.724Z,27.18
2022-08-14T15:11:47.164Z,27.19
2022-08-14T15:14:55.385Z,27.19
2022-08-14T15:17:02.070Z,27.20
2022-08-14T15:19:28.913Z,27.20
2022-08-14T15:21:55.779Z,27.21
2022-08-14T15:24:26.541Z,27.19
2022-08-14T15:26:56.312Z,27.21
2022-08-14T15:29:25.745Z,27.20
2022-08-14T15:31:53.438Z,27.21
2022-08-14T15:34:43.194Z,27.21
2022-08-14T15:37:12.629Z,27.21
2022-08-14T15:39:41.398Z,27.20
2022-08-14T15:42:16.092Z,27.20
2022-08-14T15:44:57.031Z,27.19
2022-08-14T15:47:29.027Z,27.19
2022-08-14T15:49:59.577Z,27.18
2022-08-14T15:52:35.107Z,27.19
2022-08-14T15:55:08.020Z,27.19
2022-08-14T15:57:36.218Z,27.19
2022-08-14T16:00:43.749Z,27.19
2022-08-14T16:03:15.614Z,27.21
2022-08-14T16:05:43.391Z,27.19
2022-08-14T16:08:27.004Z,27.20
2022-08-14T16:10:57.756Z,27.20
2022-08-14T16:13:42.099Z,27.20
2022-08-14T16:16:47.218Z,27.21
2022-08-14T16:19:07.215Z,27.21
2022-08-14T16:21:40.933Z,27.20
2022-08-14T16:24:28.983Z,27.20
2022-08-14T16:27:00.366Z,27.19
2022-08-14T16:29:29.910Z,27.20
2022-08-14T16:31:58.893Z,27.19
2022-08-14T16:34:44.653Z,27.18
2022-08-14T16:37:16.560Z,27.20
2022-08-14T16:39:44.764Z,27.18
2022-08-14T16:42:39.534Z,27.19
2022-08-14T16:44:59.471Z,27.19
2022-08-14T16:47:35.227Z,27.18
2022-08-14T16:50:10.484Z,27.19
2022-08-14T16:52:44.712Z,27.18
2022-08-14T16:55:13.953Z,27.17
2022-08-14T16:57:51.947Z,27.17
2022-08-14T17:00:43.654Z,27.17
2022-08-14T17:03:12.213Z,27.16
2022-08-14T17:05:43.110Z,27.15
2022-08-14T17:08:41.470Z,27.14
2022-08-14T17:11:10.633Z,27.14
2022-08-14T17:13:58.121Z,27.13
2022-08-14T17:16:35.973Z,27.13
2022-08-14T17:19:13.822Z,27.12
2022-08-14T17:21:46.813Z,27.11
2022-08-14T17:24:56.165Z,27.11
2022-08-14T17:27:05.103Z,27.11
2022-08-14T17:29:44.454Z,27.09
2022-08-14T17:32:44.515Z,27.10
2022-08-14T17:35:16.513Z,27.08
2022-08-14T17:37:46.319Z,27.07
2022-08-14T17:40:16.608Z,27.07
2022-08-14T17:42:53.478Z,27.06
2022-08-14T17:45:41.206Z,27.05
2022-08-14T17:49:09.979Z,27.04
2022-08-14T17:51:23.954Z,27.05
2022-08-14T17:54:02.776Z,27.03
2022-08-14T17:56:33.985Z,27.01
2022-08-14T17:59:03.934Z,26.98
2022-08-14T18:01:38.865Z,26.96
2022-08-14T18:04:24.880Z,26.97
2022-08-14T18:06:57.898Z,26.97
2022-08-14T18:09:35.163Z,26.96
2022-08-14T18:12:03.756Z,26.96
2022-08-14T18:14:32.662Z,26.94
2022-08-14T18:17:15.890Z,26.93
2022-08-14T18:19:44.198Z,26.92
2022-08-14T18:22:23.979Z,26.90
2022-08-14T18:24:59.201Z,26.89
2022-08-14T18:27:35.793Z,26.87
2022-08-14T18:30:33.244Z,26.86
2022-08-14T18:32:55.221Z,26.86
2022-08-14T18:35:46.148Z,26.85
2022-08-14T18:38:26.416Z,26.84
2022-08-14T18:41:36.936Z,26.82
2022-08-14T18:44:10.773Z,26.82
2022-08-14T18:47:08.620Z,26.78
2022-08-14T18:50:27.922Z,26.77
2022-08-14T18:52:53.201Z,26.77
2022-08-14T18:55:20.860Z,26.74
2022-08-14T18:58:18.809Z,26.72
2022-08-14T19:00:58.733Z,26.71
2022-08-14T19:03:36.785Z,26.69
2022-08-14T19:06:11.083Z,26.67
2022-08-14T19:08:45.974Z,26.68
2022-08-14T19:11:36.967Z,26.68
2022-08-14T19:14:05.487Z,26.66
2022-08-14T19:16:36.802Z,26.63
2022-08-14T19:19:08.893Z,26.61
2022-08-14T19:21:57.305Z,26.61
2022-08-14T19:24:44.072Z,26.58
2022-08-14T19:27:19.088Z,26.57
2022-08-14T19:29:47.915Z,26.57
2022-08-14T19:32:36.705Z,26.54
2022-08-14T19:35:16.688Z,26.53
2022-08-14T19:37:54.062Z,26.50
2022-08-14T19:40:34.053Z,26.49
2022-08-14T19:43:03.267Z,26.49
2022-08-14T19:45:34.114Z,26.47
2022-08-14T19:48:01.656Z,26.46
2022-08-14T19:50:38.902Z,26.45
2022-08-14T19:53:16.415Z,26.44
2022-08-14T19:55:54.741Z,26.42
2022-08-14T19:58:30.120Z,26.41
2022-08-14T20:01:01.605Z,26.39
2022-08-14T20:03:59.217Z,26.35
2022-08-14T20:06:28.329Z,26.35
2022-08-14T20:10:59.870Z,26.31
2022-08-14T20:12:01.824Z,26.31
2022-08-14T20:14:36.091Z,26.28
2022-08-14T20:17:06.988Z,26.27
2022-08-14T20:19:37.996Z,26.23
2022-08-14T20:22:37.167Z,26.20
2022-08-14T20:25:10.826Z,26.19
2022-08-14T20:27:40.926Z,26.17
2022-08-14T20:30:29.632Z,26.12
2022-08-14T20:33:02.065Z,26.22
2022-08-14T20:35:42.301Z,26.12
2022-08-14T20:38:31.300Z,26.05
2022-08-14T20:41:06.530Z,26.02
2022-08-14T20:43:54.349Z,26.00
2022-08-14T20:46:38.796Z,25.97
2022-08-14T20:49:08.864Z,25.95
2022-08-14T20:51:43.593Z,25.93
2022-08-14T20:54:33.788Z,25.93
2022-08-14T20:57:09.323Z,25.92
2022-08-14T20:59:43.995Z,25.89
2022-08-14T21:02:34.268Z,25.88
2022-08-14T21:05:17.155Z,25.86
2022-08-14T21:07:51.003Z,25.87
2022-08-14T21:10:35.330Z,25.83
2022-08-14T21:13:26.005Z,25.82
2022-08-14T21:15:57.746Z,25.83
2022-08-14T21:18:28.643Z,25.81
2022-08-14T21:20:55.929Z,25.81
2022-08-14T21:23:23.192Z,25.80
2022-08-14T21:25:50.166Z,25.79
2022-08-14T21:28:29.731Z,25.78
2022-08-14T21:31:03.783Z,25.78
2022-08-14T21:33:30.722Z,25.77
2022-08-14T21:36:07.857Z,25.75
2022-08-14T21:38:37.999Z,25.73
2022-08-14T21:41:42.828Z,25.74
2022-08-14T21:44:17.780Z,25.72
2022-08-14T21:46:56.606Z,25.72
2022-08-14T21:49:37.530Z,25.71
2022-08-14T21:52:51.652Z,25.69
2022-08-14T21:54:56.105Z,25.70
2022-08-14T21:57:56.615Z,25.68
2022-08-14T22:00:34.578Z,25.67
2022-08-14T22:03:08.982Z,25.66
2022-08-14T22:05:40.914Z,25.64
2022-08-14T22:08:12.394Z,25.62
2022-08-14T22:10:44.863Z,25.58
2022-08-14T22:13:16.754Z,25.58
2022-08-14T22:15:50.160Z,25.57
2022-08-14T22:18:21.432Z,25.56
2022-08-14T22:20:53.828Z,25.55
2022-08-14T22:23:24.817Z,25.54
2022-08-14T22:25:53.478Z,25.53
2022-08-14T22:28:33.080Z,25.52
2022-08-14T22:31:01.570Z,25.61
2022-08-14T22:33:30.885Z,25.54
2022-08-14T22:35:58.854Z,25.61
2022-08-14T22:38:35.690Z,25.52
2022-08-14T22:41:26.968Z,25.46
2022-08-14T22:43:56.754Z,25.43
2022-08-14T22:46:26.361Z,25.43
2022-08-14T22:48:53.803Z,25.41
2022-08-14T22:51:22.464Z,25.40
2022-08-14T22:53:52.399Z,25.39
2022-08-14T22:56:21.909Z,25.38
2022-08-14T22:58:53.781Z,25.37
2022-08-14T23:01:55.566Z,25.35
2022-08-14T23:04:35.080Z,25.33
2022-08-14T23:07:05.282Z,25.29
2022-08-14T23:09:38.244Z,25.27
2022-08-14T23:12:27.812Z,25.24
2022-08-14T23:14:54.270Z,25.22
2022-08-14T23:17:21.722Z,25.19
2022-08-14T23:19:48.818Z,25.17
2022-08-14T23:22:26.164Z,25.13
2022-08-14T23:24:57.735Z,25.11
2022-08-14T23:27:32.020Z,25.09
2022-08-14T23:30:34.139Z,25.06
2022-08-14T23:33:02.144Z,25.04
2022-08-14T23:35:32.975Z,25.00
2022-08-14T23:38:01.930Z,24.97
2022-08-14T23:40:30.725Z,24.93
2022-08-14T23:43:04.628Z,24.90
2022-08-14T23:45:37.116Z,24.86
2022-08-14T23:48:04.579Z,24.83
2022-08-14T23:50:38.766Z,24.80
2022-08-14T23:53:28.022Z,24.76
2022-08-14T23:56:13.014Z,24.72
2022-08-14T23:58:40.234Z,24.69
